createdAt,value
2022-12-25T00:01:39.036Z,101427.53
2022-12-25T00:04:05.557Z,101428.81
2022-12-25T00:06:32.108Z,101430.09
2022-12-25T00:08:58.636Z,101429.69
2022-12-25T00:11:25.114Z,101429.34
2022-12-25T00:13:51.578Z,101417.16
2022-12-25T00:16:25.178Z,101421.09
2022-12-25T00:18:52.765Z,101411.59
2022-12-25T00:21:20.571Z,101413.94
2022-12-25T00:23:47.672Z,101404.63
2022-12-25T00:26:16.569Z,101410.44
2022-12-25T00:28:43.076Z,101408.38
2022-12-25T00:31:15.192Z,101415.03
2022-12-25T00:33:43.795Z,101413.63
2022-12-25T00:36:11.408Z,101405.16
2022-12-25T00:38:39.388Z,101405.38
2022-12-25T00:41:07.951Z,101406.03
2022-12-25T00:43:34.477Z,101413.69
2022-12-25T00:46:03.330Z,101403.59
2022-12-25T00:48:30.548Z,101415.63
2022-12-25T00:50:59.138Z,101415.22
2022-12-25T00:53:26.610Z,101419.38
2022-12-25T00:56:02.032Z,101413.59
2022-12-25T00:58:31.206Z,101415.06
2022-12-25T01:00:58.107Z,101424.84
2022-12-25T01:03:25.610Z,101424.00
2022-12-25T01:06:01.464Z,101426.28
2022-12-25T01:08:30.874Z,101425.25
2022-12-25T01:11:00.698Z,101417.81
2022-12-25T01:13:28.505Z,101421.34
2022-12-25T01:15:55.172Z,101422.16
2022-12-25T01:18:23.780Z,101437.50
2022-12-25T01:20:50.400Z,101431.06
2022-12-25T01:23:17.022Z,101432.75
2022-12-25T01:25:43.517Z,101433.56
2022-12-25T01:28:09.913Z,101431.06
2022-12-25T01:30:36.352Z,101431.06
2022-12-25T01:33:02.864Z,101439.78
2022-12-25T01:35:29.462Z,101440.81
2022-12-25T01:37:55.915Z,101446.84
2022-12-25T01:40:22.329Z,101446.22
2022-12-25T01:42:48.781Z,101431.72
2022-12-25T01:45:34.717Z,101429.00
2022-12-25T01:48:05.965Z,101423.63
2022-12-25T01:50:34.015Z,101425.28
2022-12-25T01:53:00.795Z,101421.34
2022-12-25T01:55:27.892Z,101419.66
2022-12-25T01:57:54.632Z,101428.16
2022-12-25T02:00:21.126Z,101435.59
2022-12-25T02:02:48.504Z,101434.13
2022-12-25T02:05:27.205Z,101431.00
2022-12-25T02:07:54.291Z,101432.44
2022-12-25T02:10:20.811Z,101434.69
2022-12-25T02:12:48.065Z,101434.69
2022-12-25T02:15:17.978Z,101418.06
2022-12-25T02:17:57.297Z,101421.16
2022-12-25T02:20:48.226Z,101426.94
2022-12-25T02:24:00.784Z,101430.03
2022-12-25T02:26:30.060Z,101435.81
2022-12-25T02:29:45.662Z,101424.56
2022-12-25T02:32:31.176Z,101423.31
2022-12-25T02:35:09.711Z,101424.97
2022-12-25T02:37:48.568Z,101422.28
2022-12-25T02:40:24.972Z,101422.47
2022-12-25T02:43:17.236Z,101446.91
2022-12-25T02:46:18.572Z,101436.97
2022-12-25T02:49:11.878Z,101425.38
2022-12-25T02:52:02.309Z,101425.56
2022-12-25T02:54:53.278Z,101419.56
2022-12-25T02:57:43.700Z,101419.56
2022-12-25T03:00:29.995Z,101403.38
2022-12-25T03:03:17.524Z,101410.44
2022-12-25T03:06:03.729Z,101406.72
2022-12-25T03:08:34.736Z,101392.66
2022-12-25T03:11:22.633Z,101387.69
2022-12-25T03:13:55.412Z,101377.59
2022-12-25T03:16:40.933Z,101370.34
2022-12-25T03:19:26.982Z,101368.47
2022-12-25T03:22:14.498Z,101364.75
2022-12-25T03:24:59.926Z,101361.44
2022-12-25T03:27:29.556Z,101361.88
2022-12-25T03:30:19.110Z,101354.06
2022-12-25T03:33:23.209Z,101365.69
2022-12-25T03:36:20.617Z,101367.78
2022-12-25T03:39:28.620Z,101365.13
2022-12-25T03:42:18.217Z,101366.38
2022-12-25T03:45:35.580Z,101362.66
2022-12-25T03:48:23.957Z,101368.06
2022-12-25T03:51:18.941Z,101373.25
2022-12-25T03:54:12.831Z,101367.66
2022-12-25T03:57:00.137Z,101370.97
2022-12-25T03:59:45.232Z,101368.28
2022-12-25T04:02:30.132Z,101368.94
2022-12-25T04:05:15.472Z,101361.47
2022-12-25T04:08:00.882Z,101354.41
2022-12-25T04:10:45.759Z,101347.75
2022-12-25T04:13:30.714Z,101350.84
2022-12-25T04:16:15.567Z,101347.31
2022-12-25T04:19:00.791Z,101349.75
2022-12-25T04:21:45.908Z,101350.16
2022-12-25T04:24:31.289Z,101346.41
2022-12-25T04:27:16.000Z,101357.38
2022-12-25T04:30:00.926Z,101355.91
2022-12-25T04:32:45.769Z,101362.13
2022-12-25T04:35:30.521Z,101372.09
2022-12-25T04:37:57.221Z,101372.09
2022-12-25T04:40:23.784Z,101359.81
2022-12-25T04:42:51.645Z,101369.56
2022-12-25T04:45:18.160Z,101355.09
2022-12-25T04:47:44.600Z,101363.16
2022-12-25T04:50:11.127Z,101360.66
2022-12-25T04:52:39.457Z,101357.13
2022-12-25T04:55:07.174Z,101355.47
2022-12-25T04:57:33.961Z,101344.69
2022-12-25T05:00:00.556Z,101349.69
2022-12-25T05:02:27.173Z,101350.06
2022-12-25T05:04:53.636Z,101348.41
2022-12-25T05:07:20.061Z,101339.09
2022-12-25T05:09:46.433Z,101339.91
2022-12-25T05:12:13.495Z,101336.59
2022-12-25T05:14:40.072Z,101337.44
2022-12-25T05:17:07.883Z,101345.09
2022-12-25T05:19:34.669Z,101342.19
2022-12-25T05:22:01.087Z,101339.28
2022-12-25T05:24:28.193Z,101322.69
2022-12-25T05:26:54.810Z,101320.41
2022-12-25T05:29:21.272Z,101315.22
2022-12-25T05:31:47.771Z,101317.28
2022-12-25T05:34:14.225Z,101317.28
2022-12-25T05:36:40.652Z,101312.09
2022-12-25T05:39:07.043Z,101306.88
2022-12-25T05:41:34.660Z,101300.66
2022-12-25T05:44:01.671Z,101297.16
2022-12-25T05:46:28.252Z,101302.94
2022-12-25T05:48:54.653Z,101307.69
2022-12-25T05:51:21.090Z,101302.50
2022-12-25T05:53:47.642Z,101302.72
2022-12-25T05:56:14.142Z,101309.75
2022-12-25T05:58:40.859Z,101297.31
2022-12-25T06:01:20.334Z,101302.72
2022-12-25T06:03:46.951Z,101306.88
2022-12-25T06:06:14.107Z,101303.78
2022-12-25T06:08:40.829Z,101307.91
2022-12-25T06:11:08.793Z,101297.41
2022-12-25T06:13:36.093Z,101289.94
2022-12-25T06:16:07.665Z,101278.75
2022-12-25T06:18:38.867Z,101279.59
2022-12-25T06:21:13.682Z,101269.66
2022-12-25T06:23:40.756Z,101265.09
2022-12-25T06:26:12.904Z,101272.34
2022-12-25T06:28:39.477Z,101281.06
2022-12-25T06:31:11.774Z,101278.38
2022-12-25T06:33:38.443Z,101287.91
2022-12-25T06:36:25.133Z,101279.03
2022-12-25T06:38:52.548Z,101268.88
2022-12-25T06:41:24.539Z,101273.66
2022-12-25T06:43:53.799Z,101278.84
2022-12-25T06:46:22.264Z,101256.44
2022-12-25T06:48:49.607Z,101265.56
2022-12-25T06:51:17.683Z,101270.13
2022-12-25T06:53:44.157Z,101269.31
2022-12-25T06:56:15.565Z,101272.00
2022-12-25T06:58:46.452Z,101260.38
2022-12-25T07:01:20.215Z,101258.09
2022-12-25T07:03:50.028Z,101246.50
2022-12-25T07:06:16.441Z,101241.94
2022-12-25T07:08:43.067Z,101242.75
2022-12-25T07:11:09.549Z,101234.88
2022-12-25T07:13:35.925Z,101241.09
2022-12-25T07:16:03.950Z,101246.50
2022-12-25T07:18:31.365Z,101246.91
2022-12-25T07:20:59.666Z,101250.44
2022-12-25T07:23:26.831Z,101255.41
2022-12-25T07:25:58.258Z,101265.16
2022-12-25T07:28:25.520Z,101273.91
2022-12-25T07:30:52.021Z,101267.28
2022-12-25T07:33:18.617Z,101268.31
2022-12-25T07:35:45.236Z,101272.88
2022-12-25T07:38:11.686Z,101275.38
2022-12-25T07:40:38.565Z,101271.44
2022-12-25T07:43:05.226Z,101264.81
2022-12-25T07:45:31.755Z,101267.31
2022-12-25T07:48:04.332Z,101273.53
2022-12-25T07:50:31.515Z,101277.91
2022-12-25T07:52:57.921Z,101287.84
2022-12-25T07:55:24.362Z,101300.50
2022-12-25T07:57:50.842Z,101289.72
2022-12-25T08:00:17.810Z,101272.72
2022-12-25T08:02:44.500Z,101273.53
2022-12-25T08:05:11.207Z,101278.94
2022-12-25T08:07:37.658Z,101285.16
2022-12-25T08:10:04.462Z,101285.97
2022-12-25T08:12:30.893Z,101287.66
2022-12-25T08:14:57.350Z,101295.72
2022-12-25T08:17:23.724Z,101303.81
2022-12-25T08:19:50.156Z,101305.47
2022-12-25T08:22:16.646Z,101302.78
2022-12-25T08:24:43.093Z,101314.59
2022-12-25T08:27:09.572Z,101317.09
2022-12-25T08:29:35.966Z,101310.88
2022-12-25T08:32:02.488Z,101310.88
2022-12-25T08:34:28.922Z,101305.69
2022-12-25T08:36:55.372Z,101300.50
2022-12-25T08:39:21.741Z,101298.84
2022-12-25T08:41:48.117Z,101309.63
2022-12-25T08:44:14.600Z,101295.09
2022-12-25T08:46:41.025Z,101288.69
2022-12-25T08:49:07.965Z,101283.28
2022-12-25T08:51:34.492Z,101275.22
2022-12-25T08:54:01.055Z,101268.16
2022-12-25T08:56:28.024Z,101267.13
2022-12-25T08:58:54.520Z,101276.25
2022-12-25T09:01:22.325Z,101278.09
2022-12-25T09:03:48.888Z,101274.38
2022-12-25T09:06:16.692Z,101272.88
2022-12-25T09:08:49.167Z,101278.09
2022-12-25T09:11:17.869Z,101270.84
2022-12-25T09:13:44.530Z,101266.09
2022-12-25T09:16:14.605Z,101266.09
2022-12-25T09:18:41.133Z,101274.78
2022-12-25T09:21:10.952Z,101285.16
2022-12-25T09:23:37.394Z,101294.72
2022-12-25T09:26:06.253Z,101293.47
2022-12-25T09:28:33.346Z,101287.69
2022-12-25T09:30:59.930Z,101285.63
2022-12-25T09:33:26.713Z,101306.78
2022-12-25T09:35:58.496Z,101294.75
2022-12-25T09:38:25.505Z,101308.03
2022-12-25T09:41:33.353Z,101307.59
2022-12-25T09:44:05.556Z,101311.75
2022-12-25T09:46:42.179Z,101299.75
2022-12-25T09:49:21.738Z,101281.50
2022-12-25T09:51:55.687Z,101280.03
2022-12-25T09:54:27.489Z,101282.53
2022-12-25T09:56:53.886Z,101274.03
2022-12-25T09:59:25.847Z,101287.34
2022-12-25T10:02:00.696Z,101280.91
2022-12-25T10:04:57.471Z,101265.38
2022-12-25T10:07:59.513Z,101260.59
2022-12-25T10:10:39.316Z,101256.25
2022-12-25T10:13:36.984Z,101274.91
2022-12-25T10:16:15.603Z,101277.81
2022-12-25T10:18:57.021Z,101259.97
2022-12-25T10:21:23.916Z,101261.63
2022-12-25T10:24:05.446Z,101259.97
2022-12-25T10:26:33.421Z,101254.97
2022-12-25T10:29:11.844Z,101255.63
2022-12-25T10:31:38.272Z,101240.44
2022-12-25T10:34:07.082Z,101241.31
2022-12-25T10:36:34.205Z,101242.13
2022-12-25T10:39:00.679Z,101242.13
2022-12-25T10:41:49.882Z,101230.50
2022-12-25T10:44:24.375Z,101227.81
2022-12-25T10:46:53.583Z,101250.22
2022-12-25T10:49:22.793Z,101220.72
2022-12-25T10:51:49.859Z,101236.91
2022-12-25T10:54:33.352Z,101234.41
2022-12-25T10:57:08.826Z,101217.59
2022-12-25T11:00:00.314Z,101207.44
2022-12-25T11:02:29.457Z,101194.56
2022-12-25T11:05:06.194Z,101186.69
2022-12-25T11:07:46.542Z,101187.91
2022-12-25T11:10:30.899Z,101186.03
2022-12-25T11:12:59.139Z,101181.47
2022-12-25T11:15:34.275Z,101175.25
2022-12-25T11:18:01.113Z,101168.00
2022-12-25T11:20:27.619Z,101163.25
2022-12-25T11:22:54.103Z,101163.25
2022-12-25T11:25:26.160Z,101157.84
2022-12-25T11:28:05.679Z,101147.06
2022-12-25T11:30:33.674Z,101147.06
2022-12-25T11:33:06.679Z,101146.63
2022-12-25T11:35:45.791Z,101148.28
2022-12-25T11:38:12.161Z,101117.59
2022-12-25T11:40:46.879Z,101109.28
2022-12-25T11:43:21.712Z,101108.66
2022-12-25T11:46:00.116Z,101095.63
2022-12-25T11:48:36.659Z,101103.06
2022-12-25T11:51:06.180Z,101104.91
2022-12-25T11:53:44.489Z,101102.84
2022-12-25T11:56:17.241Z,101088.13
2022-12-25T11:58:54.092Z,101098.09
2022-12-25T12:01:48.838Z,101099.34
2022-12-25T12:04:29.403Z,101108.91
2022-12-25T12:07:08.794Z,101109.72
2022-12-25T12:09:56.499Z,101108.06
2022-12-25T12:12:32.112Z,101100.81
2022-12-25T12:15:16.791Z,101103.50
2022-12-25T12:17:43.212Z,101106.81
2022-12-25T12:20:27.593Z,101101.81
2022-12-25T12:22:54.335Z,101095.59
2022-12-25T12:25:21.837Z,101083.16
2022-12-25T12:28:04.448Z,101087.72
2022-12-25T12:30:34.696Z,101077.13
2022-12-25T12:33:05.587Z,101080.66
2022-12-25T12:35:35.053Z,101075.06
2022-12-25T12:38:10.386Z,101083.16
2022-12-25T12:40:51.676Z,101066.97
2022-12-25T12:43:37.683Z,101064.47
2022-12-25T12:46:08.363Z,101049.34
2022-12-25T12:48:41.525Z,101045.19
2022-12-25T12:51:11.531Z,101053.47
2022-12-25T12:53:40.633Z,101056.16
2022-12-25T12:56:16.961Z,101067.78
2022-12-25T12:58:52.142Z,101054.50
2022-12-25T13:01:27.887Z,101065.09
2022-12-25T13:04:03.653Z,101064.25
2022-12-25T13:06:40.255Z,101064.47
2022-12-25T13:09:19.692Z,101051.59
2022-12-25T13:11:46.990Z,101041.66
2022-12-25T13:14:19.671Z,101026.31
2022-12-25T13:16:51.473Z,101028.38
2022-12-25T13:19:23.935Z,101022.97
2022-12-25T13:21:55.863Z,101014.06
2022-12-25T13:24:25.194Z,101014.44
2022-12-25T13:26:51.718Z,101016.31
2022-12-25T13:29:35.476Z,101005.13
2022-12-25T13:32:05.198Z,101008.44
2022-12-25T13:34:36.057Z,101014.88
2022-12-25T13:37:17.826Z,101002.44
2022-12-25T13:40:06.387Z,100994.56
2022-12-25T13:42:41.941Z,100997.47
2022-12-25T13:45:14.412Z,100991.25
2022-12-25T13:47:54.869Z,100988.56
2022-12-25T13:50:26.483Z,100992.28
2022-12-25T13:52:54.220Z,100988.97
2022-12-25T13:55:23.750Z,101000.38
2022-12-25T13:57:58.972Z,101003.91
2022-12-25T14:00:33.329Z,100999.13
2022-12-25T14:03:00.241Z,100993.50
2022-12-25T14:05:42.392Z,100990.00
2022-12-25T14:08:21.735Z,100992.69
2022-12-25T14:10:50.961Z,100982.72
2022-12-25T14:13:19.756Z,100984.38
2022-12-25T14:15:47.940Z,100977.34
2022-12-25T14:18:16.705Z,100992.25
2022-12-25T14:21:01.154Z,100996.59
2022-12-25T14:23:39.203Z,100990.38
2022-12-25T14:26:05.806Z,100993.31
2022-12-25T14:28:34.145Z,100999.31
2022-12-25T14:31:02.316Z,100987.06
2022-12-25T14:33:35.184Z,100982.28
2022-12-25T14:36:01.861Z,100982.28
2022-12-25T14:38:34.756Z,100994.75
2022-12-25T14:41:04.277Z,100985.59
2022-12-25T14:43:32.275Z,100980.22
2022-12-25T14:46:01.393Z,100964.03
2022-12-25T14:48:32.546Z,100967.75
2022-12-25T14:51:02.440Z,100966.94
2022-12-25T14:53:34.754Z,100963.19
2022-12-25T14:56:01.611Z,100956.16
2022-12-25T14:58:31.159Z,100959.88
2022-12-25T15:01:00.233Z,100972.97
2022-12-25T15:03:31.114Z,100963.03
2022-12-25T15:06:20.592Z,100958.66
2022-12-25T15:09:01.832Z,100971.94
2022-12-25T15:11:28.780Z,100979.19
2022-12-25T15:13:55.687Z,100986.47
2022-12-25T15:16:25.342Z,100970.28
2022-12-25T15:18:53.646Z,100970.28
2022-12-25T15:21:27.532Z,100978.59
2022-12-25T15:23:55.153Z,100974.44
2022-12-25T15:26:21.740Z,100978.81
2022-12-25T15:28:48.265Z,100976.94
2022-12-25T15:31:21.841Z,100971.31
2022-12-25T15:33:49.235Z,100982.72
2022-12-25T15:36:15.713Z,100970.91
2022-12-25T15:38:42.501Z,100974.63
2022-12-25T15:41:54.958Z,100984.38
2022-12-25T15:44:22.343Z,100972.75
2022-12-25T15:46:49.020Z,100961.16
2022-12-25T15:49:16.360Z,100960.09
2022-12-25T15:51:43.766Z,100956.59
2022-12-25T15:54:10.561Z,100950.56
2022-12-25T15:56:50.064Z,100952.44
2022-12-25T15:59:17.864Z,100959.72
2022-12-25T16:01:50.292Z,100961.16
2022-12-25T16:04:17.481Z,100957.63
2022-12-25T16:06:43.915Z,100937.91
2022-12-25T16:09:14.892Z,100932.13
2022-12-25T16:11:42.273Z,100925.09
2022-12-25T16:14:09.620Z,100943.56
2022-12-25T16:16:36.113Z,100945.84
2022-12-25T16:19:02.759Z,100942.09
2022-12-25T16:21:37.794Z,100957.22
2022-12-25T16:24:04.565Z,100955.56
2022-12-25T16:26:33.161Z,100960.16
2022-12-25T16:29:06.556Z,100958.06
2022-12-25T16:31:34.108Z,100959.50
2022-12-25T16:34:01.253Z,100950.59
2022-12-25T16:36:27.674Z,100946.84
2022-12-25T16:38:54.258Z,100941.44
2022-12-25T16:41:21.690Z,100934.00
2022-12-25T16:43:48.305Z,100935.88
2022-12-25T16:46:17.703Z,100926.31
2022-12-25T16:48:44.989Z,100910.78
2022-12-25T16:51:17.274Z,100908.06
2022-12-25T16:53:44.443Z,100912.88
2022-12-25T16:56:14.655Z,100926.13
2022-12-25T16:58:42.183Z,100916.38
